sensor_id;sensor_type;location;lat;lon;timestamp;pressure;altitude;pressure_sealevel;temperature;humidity
46015;BME280;36844;51.898;-0.874;2023-01-31T00:00:27;101488.69;;;18.21;
46015;BME280;36844;51.898;-0.874;2023-01-31T00:02:53;101469.44;;;18.19;
46015;BME280;36844;51.898;-0.874;2023-01-31T00:05:18;101466.72;;;18.16;
46015;BME280;36844;51.898;-0.874;2023-01-31T00:07:44;101461.66;;;18.14;
46015;BME280;36844;51.898;-0.874;2023-01-31T00:10:09;101464.75;;;18.13;
46015;BME280;36844;51.898;-0.874;2023-01-31T00:12:35;101461.63;;;18.11;
46015;BME280;36844;51.898;-0.874;2023-01-31T00:15:00;101457.00;;;18.08;
46015;BME280;36844;51.898;-0.874;2023-01-31T00:17:25;101463.88;;;18.05;
46015;BME280;36844;51.898;-0.874;2023-01-31T00:19:50;101460.78;;;18.03;
46015;BME280;36844;51.898;-0.874;2023-01-31T00:22:16;101454.59;;;18.03;
46015;BME280;36844;51.898;-0.874;2023-01-31T00:24:41;101455.34;;;18.00;
46015;BME280;36844;51.898;-0.874;2023-01-31T00:27:06;101450.34;;;17.98;
46015;BME280;36844;51.898;-0.874;2023-01-31T00:29:32;101442.63;;;17.97;
46015;BME280;36844;51.898;-0.874;2023-01-31T00:31:57;101451.84;;;17.96;
46015;BME280;36844;51.898;-0.874;2023-01-31T00:34:22;101450.69;;;17.93;
46015;BME280;36844;51.898;-0.874;2023-01-31T00:36:48;101437.59;;;17.92;
46015;BME280;36844;51.898;-0.874;2023-01-31T00:39:13;101439.88;;;17.90;
46015;BME280;36844;51.898;-0.874;2023-01-31T00:41:38;101453.69;;;17.88;
46015;BME280;36844;51.898;-0.874;2023-01-31T00:44:04;101439.06;;;17.86;
46015;BME280;36844;51.898;-0.874;2023-01-31T00:46:29;101449.41;;;17.84;
46015;BME280;36844;51.898;-0.874;2023-01-31T00:48:55;101444.41;;;17.82;
46015;BME280;36844;51.898;-0.874;2023-01-31T00:51:20;101436.69;;;17.81;
46015;BME280;36844;51.898;-0.874;2023-01-31T00:53:46;101440.53;;;17.80;
46015;BME280;36844;51.898;-0.874;2023-01-31T00:56:22;101427.81;;;17.77;
46015;BME280;36844;51.898;-0.874;2023-01-31T00:58:47;101423.13;;;17.73;
46015;BME280;36844;51.898;-0.874;2023-01-31T01:01:17;101440.44;;;17.72;
46015;BME280;36844;51.898;-0.874;2023-01-31T01:03:43;101423.88;;;17.70;
46015;BME280;36844;51.898;-0.874;2023-01-31T01:06:09;101435.81;;;17.69;
46015;BME280;36844;51.898;-0.874;2023-01-31T01:08:34;101437.28;;;17.67;
46015;BME280;36844;51.898;-0.874;2023-01-31T01:11:06;101430.34;;;17.66;
46015;BME280;36844;51.898;-0.874;2023-01-31T01:13:32;101423.78;;;17.63;
46015;BME280;36844;51.898;-0.874;2023-01-31T01:15:57;101426.88;;;17.62;
46015;BME280;36844;51.898;-0.874;2023-01-31T01:18:22;101428.00;;;17.61;
46015;BME280;36844;51.898;-0.874;2023-01-31T01:20:47;101433.72;;;17.59;
46015;BME280;36844;51.898;-0.874;2023-01-31T01:23:12;101422.56;;;17.57;
46015;BME280;36844;51.898;-0.874;2023-01-31T01:25:41;101416.75;;;17.55;
46015;BME280;36844;51.898;-0.874;2023-01-31T01:28:07;101413.31;;;17.55;
46015;BME280;36844;51.898;-0.874;2023-01-31T01:30:32;101408.28;;;17.53;
46015;BME280;36844;51.898;-0.874;2023-01-31T01:32:57;101411.31;;;17.52;
46015;BME280;36844;51.898;-0.874;2023-01-31T01:35:22;101397.06;;;17.51;
46015;BME280;36844;51.898;-0.874;2023-01-31T01:37:48;101387.81;;;17.49;
46015;BME280;36844;51.898;-0.874;2023-01-31T01:40:13;101390.94;;;17.47;
46015;BME280;36844;51.898;-0.874;2023-01-31T01:42:38;101391.28;;;17.46;
46015;BME280;36844;51.898;-0.874;2023-01-31T01:45:04;101385.44;;;17.44;
46015;BME280;36844;51.898;-0.874;2023-01-31T01:48:13;101372.38;;;17.42;
46015;BME280;36844;51.898;-0.874;2023-01-31T01:50:37;101375.41;;;17.41;
46015;BME280;36844;51.898;-0.874;2023-01-31T01:55:43;101389.63;;;17.38;
46015;BME280;36844;51.898;-0.874;2023-01-31T01:58:13;101383.88;;;17.36;
46015;BME280;36844;51.898;-0.874;2023-01-31T02:00:40;101376.91;;;17.35;
46015;BME280;36844;51.898;-0.874;2023-01-31T02:03:05;101383.41;;;17.34;
46015;BME280;36844;51.898;-0.874;2023-01-31T02:05:32;101378.41;;;17.32;
46015;BME280;36844;51.898;-0.874;2023-01-31T02:07:58;101374.97;;;17.32;
46015;BME280;36844;51.898;-0.874;2023-01-31T02:10:27;101370.25;;;17.29;
46015;BME280;36844;51.898;-0.874;2023-01-31T02:12:54;101357.97;;;17.28;
46015;BME280;36844;51.898;-0.874;2023-01-31T02:15:20;101359.91;;;17.27;
46015;BME280;36844;51.898;-0.874;2023-01-31T02:17:46;101359.44;;;17.25;
46015;BME280;36844;51.898;-0.874;2023-01-31T02:41:04;101337.41;;;17.13;
46015;BME280;36844;51.898;-0.874;2023-01-31T02:46:22;101339.69;;;17.11;
46015;BME280;36844;51.898;-0.874;2023-01-31T02:48:57;101341.19;;;17.08;
46015;BME280;36844;51.898;-0.874;2023-01-31T02:51:28;101343.91;;;17.08;
46015;BME280;36844;51.898;-0.874;2023-01-31T02:54:04;101347.31;;;17.05;
46015;BME280;36844;51.898;-0.874;2023-01-31T02:56:33;101337.31;;;17.06;
46015;BME280;36844;51.898;-0.874;2023-01-31T02:59:00;101335.78;;;17.05;
46015;BME280;36844;51.898;-0.874;2023-01-31T03:01:28;101341.50;;;17.03;
46015;BME280;36844;51.898;-0.874;2023-01-31T03:03:58;101341.50;;;17.03;
46015;BME280;36844;51.898;-0.874;2023-01-31T03:09:08;101328.78;;;17.00;
46015;BME280;36844;51.898;-0.874;2023-01-31T03:11:39;101319.94;;;17.00;
46015;BME280;36844;51.898;-0.874;2023-01-31T03:14:22;101304.16;;;16.98;
46015;BME280;36844;51.898;-0.874;2023-01-31T03:16:53;101291.84;;;16.97;
46015;BME280;36844;51.898;-0.874;2023-01-31T03:22:17;101292.56;;;16.94;
46015;BME280;36844;51.898;-0.874;2023-01-31T03:24:48;101297.19;;;16.94;
46015;BME280;36844;51.898;-0.874;2023-01-31T03:27:14;101303.72;;;16.93;
46015;BME280;36844;51.898;-0.874;2023-01-31T03:29:40;101302.94;;;16.92;
46015;BME280;36844;51.898;-0.874;2023-01-31T03:32:06;101297.91;;;16.91;
46015;BME280;36844;51.898;-0.874;2023-01-31T03:34:35;101302.50;;;16.90;
46015;BME280;36844;51.898;-0.874;2023-01-31T03:39:36;101300.97;;;16.89;
46015;BME280;36844;51.898;-0.874;2023-01-31T03:42:07;101300.56;;;16.87;
46015;BME280;36844;51.898;-0.874;2023-01-31T03:44:52;101296.31;;;16.86;
46015;BME280;36844;51.898;-0.874;2023-01-31T03:47:28;101300.16;;;16.85;
46015;BME280;36844;51.898;-0.874;2023-01-31T03:49:55;101311.25;;;16.83;
46015;BME280;36844;51.898;-0.874;2023-01-31T03:52:26;101297.06;;;16.83;
46015;BME280;36844;51.898;-0.874;2023-01-31T03:54:55;101305.13;;;16.83;
46015;BME280;36844;51.898;-0.874;2023-01-31T03:57:23;101294.72;;;16.82;
46015;BME280;36844;51.898;-0.874;2023-01-31T03:59:50;101299.34;;;16.81;
46015;BME280;36844;51.898;-0.874;2023-01-31T04:02:18;101300.47;;;16.80;
46015;BME280;36844;51.898;-0.874;2023-01-31T04:04:50;101306.22;;;16.78;
46015;BME280;36844;51.898;-0.874;2023-01-31T04:07:17;101308.16;;;16.78;
46015;BME280;36844;51.898;-0.874;2023-01-31T04:09:43;101298.50;;;16.77;
46015;BME280;36844;51.898;-0.874;2023-01-31T04:12:08;101294.25;;;16.76;
46015;BME280;36844;51.898;-0.874;2023-01-31T04:14:35;101300.41;;;16.76;
46015;BME280;36844;51.898;-0.874;2023-01-31T04:17:01;101293.50;;;16.75;
46015;BME280;36844;51.898;-0.874;2023-01-31T04:19:26;101294.66;;;16.74;
46015;BME280;36844;51.898;-0.874;2023-01-31T04:21:51;101298.47;;;16.73;
46015;BME280;36844;51.898;-0.874;2023-01-31T04:24:16;101288.06;;;16.72;
46015;BME280;36844;51.898;-0.874;2023-01-31T04:26:41;101289.97;;;16.71;
46015;BME280;36844;51.898;-0.874;2023-01-31T04:29:07;101283.06;;;16.70;
46015;BME280;36844;51.898;-0.874;2023-01-31T04:31:32;101285.75;;;16.70;
46015;BME280;36844;51.898;-0.874;2023-01-31T04:33:57;101289.56;;;16.69;
46015;BME280;36844;51.898;-0.874;2023-01-31T04:36:24;101281.88;;;16.68;
46015;BME280;36844;51.898;-0.874;2023-01-31T04:38:49;101283.78;;;16.67;
46015;BME280;36844;51.898;-0.874;2023-01-31T04:41:14;101286.47;;;16.67;
46015;BME280;36844;51.898;-0.874;2023-01-31T04:43:40;101294.91;;;16.66;
46015;BME280;36844;51.898;-0.874;2023-01-31T04:46:05;101302.19;;;16.65;
46015;BME280;36844;51.898;-0.874;2023-01-31T04:48:30;101299.88;;;16.64;
46015;BME280;36844;51.898;-0.874;2023-01-31T04:50:56;101288.34;;;16.63;
46015;BME280;36844;51.898;-0.874;2023-01-31T04:53:21;101286.78;;;16.62;
46015;BME280;36844;51.898;-0.874;2023-01-31T04:55:46;101282.53;;;16.61;
46015;BME280;36844;51.898;-0.874;2023-01-31T04:58:12;101277.16;;;16.61;
46015;BME280;36844;51.898;-0.874;2023-01-31T05:00:37;101273.69;;;16.61;
46015;BME280;36844;51.898;-0.874;2023-01-31T05:03:02;101273.31;;;16.59;
46015;BME280;36844;51.898;-0.874;2023-01-31T05:05:27;101271.75;;;16.58;
46015;BME280;36844;51.898;-0.874;2023-01-31T05:07:53;101260.19;;;16.57;
46015;BME280;36844;51.898;-0.874;2023-01-31T05:10:18;101265.59;;;16.57;
46015;BME280;36844;51.898;-0.874;2023-01-31T05:12:43;101250.59;;;16.56;
46015;BME280;36844;51.898;-0.874;2023-01-31T05:15:09;101249.81;;;16.56;
46015;BME280;36844;51.898;-0.874;2023-01-31T05:17:35;101253.66;;;16.55;
46015;BME280;36844;51.898;-0.874;2023-01-31T05:20:01;101252.09;;;16.54;
46015;BME280;36844;51.898;-0.874;2023-01-31T05:22:26;101244.41;;;16.52;
46015;BME280;36844;51.898;-0.874;2023-01-31T05:24:51;101249.00;;;16.52;
46015;BME280;36844;51.898;-0.874;2023-01-31T05:27:17;101244.75;;;16.51;
46015;BME280;36844;51.898;-0.874;2023-01-31T05:29:42;101246.66;;;16.50;
46015;BME280;36844;51.898;-0.874;2023-01-31T05:32:08;101241.63;;;16.49;
46015;BME280;36844;51.898;-0.874;2023-01-31T05:34:33;101232.03;;;16.48;
46015;BME280;36844;51.898;-0.874;2023-01-31T05:36:58;101227.03;;;16.46;
46015;BME280;36844;51.898;-0.874;2023-01-31T05:39:24;101225.13;;;16.47;
46015;BME280;36844;51.898;-0.874;2023-01-31T05:41:51;101210.09;;;16.46;
46015;BME280;36844;51.898;-0.874;2023-01-31T05:44:17;101217.38;;;16.45;
46015;BME280;36844;51.898;-0.874;2023-01-31T05:46:43;101209.69;;;16.44;
46015;BME280;36844;51.898;-0.874;2023-01-31T05:49:08;101216.22;;;16.43;
46015;BME280;36844;51.898;-0.874;2023-01-31T05:51:33;101203.91;;;16.42;
46015;BME280;36844;51.898;-0.874;2023-01-31T05:53:58;101200.44;;;16.41;
46015;BME280;36844;51.898;-0.874;2023-01-31T05:56:24;101204.28;;;16.40;
46015;BME280;36844;51.898;-0.874;2023-01-31T05:58:49;101195.47;;;16.40;
46015;BME280;36844;51.898;-0.874;2023-01-31T06:01:18;101201.97;;;16.39;
46015;BME280;36844;51.898;-0.874;2023-01-31T06:03:43;101195.00;;;16.38;
46015;BME280;36844;51.898;-0.874;2023-01-31T06:06:09;101199.63;;;16.37;
46015;BME280;36844;51.898;-0.874;2023-01-31T06:08:34;101198.84;;;16.37;
46015;BME280;36844;51.898;-0.874;2023-01-31T06:11:02;101192.69;;;16.36;
46015;BME280;36844;51.898;-0.874;2023-01-31T06:13:31;101190.38;;;16.35;
46015;BME280;36844;51.898;-0.874;2023-01-31T06:15:56;101188.03;;;16.33;
46015;BME280;36844;51.898;-0.874;2023-01-31T06:18:21;101178.06;;;16.34;
46015;BME280;36844;51.898;-0.874;2023-01-31T06:20:47;101181.13;;;16.32;
46015;BME280;36844;51.898;-0.874;2023-01-31T06:23:12;101175.75;;;16.32;
46015;BME280;36844;51.898;-0.874;2023-01-31T06:25:37;101178.81;;;16.31;
46015;BME280;36844;51.898;-0.874;2023-01-31T06:28:03;101171.53;;;16.31;
46015;BME280;36844;51.898;-0.874;2023-01-31T06:30:28;101177.25;;;16.30;
46015;BME280;36844;51.898;-0.874;2023-01-31T06:32:53;101170.31;;;16.29;
46015;BME280;36844;51.898;-0.874;2023-01-31T06:35:19;101186.47;;;16.29;
46015;BME280;36844;51.898;-0.874;2023-01-31T06:37:44;101168.78;;;16.28;
46015;BME280;36844;51.898;-0.874;2023-01-31T06:40:09;101168.00;;;16.27;
46015;BME280;36844;51.898;-0.874;2023-01-31T06:42:35;101161.84;;;16.27;
46015;BME280;36844;51.898;-0.874;2023-01-31T06:45:00;101158.38;;;16.26;
46015;BME280;36844;51.898;-0.874;2023-01-31T06:47:25;101150.31;;;16.26;
46015;BME280;36844;51.898;-0.874;2023-01-31T06:49:50;101150.31;;;16.26;
46015;BME280;36844;51.898;-0.874;2023-01-31T06:52:15;101153.78;;;16.27;
46015;BME280;36844;51.898;-0.874;2023-01-31T06:54:41;101169.91;;;16.27;
46015;BME280;36844;51.898;-0.874;2023-01-31T06:57:06;101166.09;;;16.28;
46015;BME280;36844;51.898;-0.874;2023-01-31T06:59:31;101171.50;;;16.28;
46015;BME280;36844;51.898;-0.874;2023-01-31T07:01:56;101168.41;;;16.29;
46015;BME280;36844;51.898;-0.874;2023-01-31T07:04:22;101166.50;;;16.30;
46015;BME280;36844;51.898;-0.874;2023-01-31T07:06:47;101169.63;;;16.32;
46015;BME280;36844;51.898;-0.874;2023-01-31T07:09:12;101171.91;;;16.33;
46015;BME280;36844;51.898;-0.874;2023-01-31T07:11:37;101175.81;;;16.36;
46015;BME280;36844;51.898;-0.874;2023-01-31T07:14:03;101184.25;;;16.38;
46015;BME280;36844;51.898;-0.874;2023-01-31T07:16:28;101188.94;;;16.41;
46015;BME280;36844;51.898;-0.874;2023-01-31T07:18:54;101203.56;;;16.43;
46015;BME280;36844;51.898;-0.874;2023-01-31T07:21:20;101203.59;;;16.47;
46015;BME280;36844;51.898;-0.874;2023-01-31T07:23:45;101202.53;;;16.51;
46015;BME280;36844;51.898;-0.874;2023-01-31T07:26:11;101192.94;;;16.54;
46015;BME280;36844;51.898;-0.874;2023-01-31T07:28:36;101183.00;;;16.58;
46015;BME280;36844;51.898;-0.874;2023-01-31T07:31:05;101182.69;;;16.63;
46015;BME280;36844;51.898;-0.874;2023-01-31T07:33:31;101168.50;;;16.66;
46015;BME280;36844;51.898;-0.874;2023-01-31T07:35:56;101164.72;;;16.70;
46015;BME280;36844;51.898;-0.874;2023-01-31T07:38:22;101164.75;;;16.74;
46015;BME280;36844;51.898;-0.874;2023-01-31T07:40:47;101160.19;;;16.78;
46015;BME280;36844;51.898;-0.874;2023-01-31T07:43:12;101155.63;;;16.82;
46015;BME280;36844;51.898;-0.874;2023-01-31T07:45:37;101171.41;;;16.87;
46015;BME280;36844;51.898;-0.874;2023-01-31T07:48:03;101191.06;;;16.91;
46015;BME280;36844;51.898;-0.874;2023-01-31T07:50:30;101186.47;;;16.95;
46015;BME280;36844;51.898;-0.874;2023-01-31T07:52:56;101184.59;;;16.99;
46015;BME280;36844;51.898;-0.874;2023-01-31T07:55:21;101181.19;;;17.02;
46015;BME280;36844;51.898;-0.874;2023-01-31T07:57:46;101183.91;;;17.06;
46015;BME280;36844;51.898;-0.874;2023-01-31T08:00:12;101174.69;;;17.10;
46015;BME280;36844;51.898;-0.874;2023-01-31T08:02:55;101182.06;;;17.13;
46015;BME280;36844;51.898;-0.874;2023-01-31T08:05:39;101175.50;;;17.14;
46015;BME280;36844;51.898;-0.874;2023-01-31T08:08:04;101182.78;;;17.10;
46015;BME280;36844;51.898;-0.874;2023-01-31T08:10:36;101177.03;;;17.08;
46015;BME280;36844;51.898;-0.874;2023-01-31T08:13:01;101173.94;;;17.10;
46015;BME280;36844;51.898;-0.874;2023-01-31T08:15:26;101176.66;;;17.10;
46015;BME280;36844;51.898;-0.874;2023-01-31T08:17:51;101176.28;;;17.11;
46015;BME280;36844;51.898;-0.874;2023-01-31T08:20:17;101180.53;;;17.12;
46015;BME280;36844;51.898;-0.874;2023-01-31T08:22:43;101178.97;;;17.15;
46015;BME280;36844;51.898;-0.874;2023-01-31T08:25:08;101165.19;;;17.16;
46015;BME280;36844;51.898;-0.874;2023-01-31T08:27:34;101165.56;;;17.18;
46015;BME280;36844;51.898;-0.874;2023-01-31T08:29:59;101159.03;;;17.19;
46015;BME280;36844;51.898;-0.874;2023-01-31T08:32:24;101147.53;;;17.22;
46015;BME280;36844;51.898;-0.874;2023-01-31T08:34:49;101149.09;;;17.23;
46015;BME280;36844;51.898;-0.874;2023-01-31T08:37:14;101156.78;;;17.25;
46015;BME280;36844;51.898;-0.874;2023-01-31T08:39:40;101152.94;;;17.26;
46015;BME280;36844;51.898;-0.874;2023-01-31T08:42:05;101151.03;;;17.26;
46015;BME280;36844;51.898;-0.874;2023-01-31T08:44:30;101144.09;;;17.29;
46015;BME280;36844;51.898;-0.874;2023-01-31T08:46:55;101142.19;;;17.29;
46015;BME280;36844;51.898;-0.874;2023-01-31T08:49:23;101144.53;;;17.31;
46015;BME280;36844;51.898;-0.874;2023-01-31T08:51:48;101139.53;;;17.33;
46015;BME280;36844;51.898;-0.874;2023-01-31T08:54:13;101138.78;;;17.32;
46015;BME280;36844;51.898;-0.874;2023-01-31T08:56:39;101139.16;;;17.34;
46015;BME280;36844;51.898;-0.874;2023-01-31T08:59:04;101147.63;;;17.36;
46015;BME280;36844;51.898;-0.874;2023-01-31T09:01:29;101138.84;;;17.39;
46015;BME280;36844;51.898;-0.874;2023-01-31T09:03:55;101131.50;;;17.40;
46015;BME280;36844;51.898;-0.874;2023-01-31T09:06:21;101141.91;;;17.41;
46015;BME280;36844;51.898;-0.874;2023-01-31T09:08:47;101144.25;;;17.43;
46015;BME280;36844;51.898;-0.874;2023-01-31T09:11:13;101146.94;;;17.43;
46015;BME280;36844;51.898;-0.874;2023-01-31T09:13:43;101162.69;;;17.44;
46015;BME280;36844;51.898;-0.874;2023-01-31T09:16:09;101161.91;;;17.44;
46015;BME280;36844;51.898;-0.874;2023-01-31T09:18:36;101171.19;;;17.43;
46015;BME280;36844;51.898;-0.874;2023-01-31T09:21:02;101168.50;;;17.43;
46015;BME280;36844;51.898;-0.874;2023-01-31T09:23:28;101163.09;;;17.43;
46015;BME280;36844;51.898;-0.874;2023-01-31T09:25:53;101183.09;;;17.42;
46015;BME280;36844;51.898;-0.874;2023-01-31T09:28:19;101184.22;;;17.41;
46015;BME280;36844;51.898;-0.874;2023-01-31T09:30:44;101166.09;;;17.34;
46015;BME280;36844;51.898;-0.874;2023-01-31T09:33:09;101189.22;;;17.39;
46015;BME280;36844;51.898;-0.874;2023-01-31T09:35:34;101186.88;;;17.37;
46015;BME280;36844;51.898;-0.874;2023-01-31T09:38:00;101189.97;;;17.36;
46015;BME280;36844;51.898;-0.874;2023-01-31T09:40:25;101186.50;;;17.35;
46015;BME280;36844;51.898;-0.874;2023-01-31T09:42:54;101191.09;;;17.35;
46015;BME280;36844;51.898;-0.874;2023-01-31T09:45:30;101189.53;;;17.34;
46015;BME280;36844;51.898;-0.874;2023-01-31T09:47:56;101187.22;;;17.32;
46015;BME280;36844;51.898;-0.874;2023-01-31T09:50:27;101188.41;;;17.31;
46015;BME280;36844;51.898;-0.874;2023-01-31T09:52:55;101184.13;;;17.30;
46015;BME280;36844;51.898;-0.874;2023-01-31T09:55:41;101174.50;;;17.29;
46015;BME280;36844;51.898;-0.874;2023-01-31T10:00:48;101167.97;;;17.27;
46015;BME280;36844;51.898;-0.874;2023-01-31T10:05:50;101181.38;;;17.23;
46015;BME280;36844;51.898;-0.874;2023-01-31T10:08:26;101185.22;;;17.22;
46015;BME280;36844;51.898;-0.874;2023-01-31T10:10:55;101180.97;;;17.21;
46015;BME280;36844;51.898;-0.874;2023-01-31T10:13:27;101185.97;;;17.19;
46015;BME280;36844;51.898;-0.874;2023-01-31T10:16:08;101183.63;;;17.18;
46015;BME280;36844;51.898;-0.874;2023-01-31T10:18:38;101180.56;;;17.16;
46015;BME280;36844;51.898;-0.874;2023-01-31T10:21:09;101180.91;;;17.14;
46015;BME280;36844;51.898;-0.874;2023-01-31T10:23:39;101177.81;;;17.12;
46015;BME280;36844;51.898;-0.874;2023-01-31T10:26:08;101181.25;;;17.09;
46015;BME280;36844;51.898;-0.874;2023-01-31T10:28:44;101182.41;;;17.08;
46015;BME280;36844;51.898;-0.874;2023-01-31T10:31:26;101182.00;;;17.06;
46015;BME280;36844;51.898;-0.874;2023-01-31T10:34:01;101178.13;;;17.04;
46015;BME280;36844;51.898;-0.874;2023-01-31T10:36:48;101181.19;;;17.02;
46015;BME280;36844;51.898;-0.874;2023-01-31T10:47:10;101176.53;;;16.99;
46015;BME280;36844;51.898;-0.874;2023-01-31T10:49:36;101172.69;;;17.00;
46015;BME280;36844;51.898;-0.874;2023-01-31T10:57:25;101184.28;;;17.04;
46015;BME280;36844;51.898;-0.874;2023-01-31T10:59:50;101177.78;;;17.05;
46015;BME280;36844;51.898;-0.874;2023-01-31T11:02:21;101183.19;;;17.09;
46015;BME280;36844;51.898;-0.874;2023-01-31T11:04:48;101178.59;;;17.13;
46015;BME280;36844;51.898;-0.874;2023-01-31T11:07:14;101190.53;;;17.15;
46015;BME280;36844;51.898;-0.874;2023-01-31T11:09:40;101188.66;;;17.19;
46015;BME280;36844;51.898;-0.874;2023-01-31T11:12:07;101177.13;;;17.22;
46015;BME280;36844;51.898;-0.874;2023-01-31T11:14:33;101191.06;;;17.28;
46015;BME280;36844;51.898;-0.874;2023-01-31T11:17:03;101191.09;;;17.31;
46015;BME280;36844;51.898;-0.874;2023-01-31T11:22:00;101172.28;;;17.38;
46015;BME280;36844;51.898;-0.874;2023-01-31T11:24:27;101167.72;;;17.42;
46015;BME280;36844;51.898;-0.874;2023-01-31T11:27:03;101162.34;;;17.46;
46015;BME280;36844;51.898;-0.874;2023-01-31T11:29:40;101163.16;;;17.50;
46015;BME280;36844;51.898;-0.874;2023-01-31T11:32:14;101158.56;;;17.54;
46015;BME280;36844;51.898;-0.874;2023-01-31T11:34:44;101148.16;;;17.56;
46015;BME280;36844;51.898;-0.874;2023-01-31T11:37:19;101158.22;;;17.59;
46015;BME280;36844;51.898;-0.874;2023-01-31T11:39:53;101162.44;;;17.60;
46015;BME280;36844;51.898;-0.874;2023-01-31T11:42:18;101153.59;;;17.63;
46015;BME280;36844;51.898;-0.874;2023-01-31T11:47:18;101142.09;;;17.66;
46015;BME280;36844;51.898;-0.874;2023-01-31T11:49:46;101137.47;;;17.66;
46015;BME280;36844;51.898;-0.874;2023-01-31T11:52:15;101143.28;;;17.68;
46015;BME280;36844;51.898;-0.874;2023-01-31T11:54:42;101142.13;;;17.69;
46015;BME280;36844;51.898;-0.874;2023-01-31T11:57:13;101137.88;;;17.68;
46015;BME280;36844;51.898;-0.874;2023-01-31T11:59:39;101133.28;;;17.69;
46015;BME280;36844;51.898;-0.874;2023-01-31T12:02:04;101137.88;;;17.68;
46015;BME280;36844;51.898;-0.874;2023-01-31T12:04:33;101141.34;;;17.69;
46015;BME280;36844;51.898;-0.874;2023-01-31T12:07:05;101141.34;;;17.69;
46015;BME280;36844;51.898;-0.874;2023-01-31T12:09:43;101150.97;;;17.70;
46015;BME280;36844;51.898;-0.874;2023-01-31T12:12:22;101140.56;;;17.68;
46015;BME280;36844;51.898;-0.874;2023-01-31T12:14:49;101148.66;;;17.68;
46015;BME280;36844;51.898;-0.874;2023-01-31T12:17:14;101137.88;;;17.68;
46015;BME280;36844;51.898;-0.874;2023-01-31T12:19:54;101151.34;;;17.68;
46015;BME280;36844;51.898;-0.874;2023-01-31T12:22:24;101137.09;;;17.68;
46015;BME280;36844;51.898;-0.874;2023-01-31T12:25:08;101140.94;;;17.67;
46015;BME280;36844;51.898;-0.874;2023-01-31T12:30:12;101143.28;;;17.68;
46015;BME280;36844;51.898;-0.874;2023-01-31T12:37:59;101144.84;;;17.69;
46015;BME280;36844;51.898;-0.874;2023-01-31T12:50:44;101151.78;;;17.74;
46015;BME280;36844;51.898;-0.874;2023-01-31T12:53:24;101154.88;;;17.76;
46015;BME280;36844;51.898;-0.874;2023-01-31T12:56:02;101149.47;;;17.76;
46015;BME280;36844;51.898;-0.874;2023-01-31T13:01:08;101164.88;;;17.79;
46015;BME280;36844;51.898;-0.874;2023-01-31T13:03:37;101160.66;;;17.82;
46015;BME280;36844;51.898;-0.874;2023-01-31T13:08:33;101168.38;;;17.83;
46015;BME280;36844;51.898;-0.874;2023-01-31T13:11:08;101161.84;;;17.84;
46015;BME280;36844;51.898;-0.874;2023-01-31T13:13:37;101156.06;;;17.86;
46015;BME280;36844;51.898;-0.874;2023-01-31T13:18:48;101148.75;;;17.86;
46015;BME280;36844;51.898;-0.874;2023-01-31T13:21:19;101151.84;;;17.88;
46015;BME280;36844;51.898;-0.874;2023-01-31T13:23:48;101151.84;;;17.88;
46015;BME280;36844;51.898;-0.874;2023-01-31T13:26:17;101147.22;;;17.89;
46015;BME280;36844;51.898;-0.874;2023-01-31T13:31:23;101155.31;;;17.89;
46015;BME280;36844;51.898;-0.874;2023-01-31T13:36:20;101142.63;;;17.89;
46015;BME280;36844;51.898;-0.874;2023-01-31T13:38:47;101153.41;;;17.89;
46015;BME280;36844;51.898;-0.874;2023-01-31T13:41:17;101154.19;;;17.90;
46015;BME280;36844;51.898;-0.874;2023-01-31T13:43:44;101163.81;;;17.91;
46015;BME280;36844;51.898;-0.874;2023-01-31T13:46:10;101163.00;;;17.90;
46015;BME280;36844;51.898;-0.874;2023-01-31T13:48:39;101167.66;;;17.90;
46015;BME280;36844;51.898;-0.874;2023-01-31T13:51:11;101169.56;;;17.89;
46015;BME280;36844;51.898;-0.874;2023-01-31T13:56:29;101157.22;;;17.88;
46015;BME280;36844;51.898;-0.874;2023-01-31T13:58:55;101156.47;;;17.88;
46015;BME280;36844;51.898;-0.874;2023-01-31T14:01:21;101159.94;;;17.88;
46015;BME280;36844;51.898;-0.874;2023-01-31T14:09:21;101174.16;;;17.85;
46015;BME280;36844;51.898;-0.874;2023-01-31T14:11:47;101172.63;;;17.84;
46015;BME280;36844;51.898;-0.874;2023-01-31T14:16:44;101182.63;;;17.84;
46015;BME280;36844;51.898;-0.874;2023-01-31T14:21:52;101178.75;;;17.81;
46015;BME280;36844;51.898;-0.874;2023-01-31T14:25:05;101193.00;;;17.82;
46015;BME280;36844;51.898;-0.874;2023-01-31T14:27:09;101184.53;;;17.80;
46015;BME280;36844;51.898;-0.874;2023-01-31T14:29:40;101192.59;;;17.80;
46015;BME280;36844;51.898;-0.874;2023-01-31T14:32:06;101180.66;;;17.77;
46015;BME280;36844;51.898;-0.874;2023-01-31T14:34:37;101188.72;;;17.77;
46015;BME280;36844;51.898;-0.874;2023-01-31T14:37:19;101185.63;;;17.75;
46015;BME280;36844;51.898;-0.874;2023-01-31T14:42:33;101192.56;;;17.72;
46015;BME280;36844;51.898;-0.874;2023-01-31T14:53:02;101192.53;;;17.65;
46015;BME280;36844;51.898;-0.874;2023-01-31T14:58:19;101204.03;;;17.62;
46015;BME280;36844;51.898;-0.874;2023-01-31T15:00:49;101208.22;;;17.60;
46015;BME280;36844;51.898;-0.874;2023-01-31T15:05:52;101219.75;;;17.57;
46015;BME280;36844;51.898;-0.874;2023-01-31T15:16:02;101206.63;;;17.52;
46015;BME280;36844;51.898;-0.874;2023-01-31T15:18:28;101213.19;;;17.51;
46015;BME280;36844;51.898;-0.874;2023-01-31T15:20:57;101217.00;;;17.50;
46015;BME280;36844;51.898;-0.874;2023-01-31T15:23:24;101230.84;;;17.48;
46015;BME280;36844;51.898;-0.874;2023-01-31T15:25:51;101228.13;;;17.48;
46015;BME280;36844;51.898;-0.874;2023-01-31T15:28:20;101227.75;;;17.46;
46015;BME280;36844;51.898;-0.874;2023-01-31T15:30:46;101226.19;;;17.45;
46015;BME280;36844;51.898;-0.874;2023-01-31T15:33:12;101226.19;;;17.45;
46015;BME280;36844;51.898;-0.874;2023-01-31T15:35:43;101226.97;;;17.46;
46015;BME280;36844;51.898;-0.874;2023-01-31T15:38:56;101232.72;;;17.44;
46015;BME280;36844;51.898;-0.874;2023-01-31T15:43:39;101236.97;;;17.45;